Time;durP1;ratioP1;P1;durP2;ratioP2;P2;SDS_P1;SDS_P2;PMS_P1;PMS_P2;Temp;Humidity;BMP_temperature;BMP_pressure;BME280_temperature;BME280_humidity;BME280_pressure;Samples;Min_cycle;Max_cycle;Signal;HPM_P1;HPM_P2
2022/07/15 00:00:17;;;;;;;3.13;1.40;;;18.10;70.40;;;;;;4939498;28;20055;-66
2022/07/15 00:02:43;;;;;;;3.78;1.58;;;18.00;70.60;;;;;;4934415;29;20083;-66
2022/07/15 00:05:09;;;;;;;3.30;1.58;;;18.00;70.80;;;;;;4920916;29;20109;-66
2022/07/15 00:07:35;;;;;;;1.98;1.35;;;18.00;71.00;;;;;;4952749;29;20051;-66
2022/07/15 00:10:20;;;;;;;2.33;1.40;;;18.00;71.00;;;;;;4950293;29;20035;-66
2022/07/15 00:12:55;;;;;;;3.28;1.20;;;18.00;70.90;;;;;;4941585;29;20037;-66
2022/07/15 00:15:22;;;;;;;;;;;17.90;71.20;;;;;;4948508;29;20383;-66
2022/07/15 00:17:49;;;;;;;3.45;1.40;;;17.90;70.80;;;;;;4933910;29;19911;-66
2022/07/15 00:20:16;;;;;;;1.75;1.15;;;17.80;71.00;;;;;;4934753;29;20039;-66
2022/07/15 00:22:43;;;;;;;3.20;1.33;;;17.80;71.20;;;;;;4916948;29;20028;-66
2022/07/15 00:25:10;;;;;;;4.35;1.67;;;17.80;71.30;;;;;;4937525;29;20015;-66
2022/07/15 00:27:36;;;;;;;2.72;1.52;;;17.70;71.40;;;;;;4937941;29;20039;-66
2022/07/15 00:30:03;;;;;;;3.72;1.42;;;17.70;71.50;;;;;;4936384;29;20031;-66
2022/07/15 00:32:29;;;;;;;4.43;1.80;;;17.70;71.60;;;;;;4953000;29;20078;-66
2022/07/15 00:34:55;;;;;;;2.25;1.08;;;17.70;71.60;;;;;;4951331;29;20904;-66
2022/07/15 00:37:20;;;;;;;2.97;1.50;;;17.70;71.70;;;;;;4938356;29;20379;-66
2022/07/15 00:39:46;;;;;;;2.28;1.00;;;17.70;71.80;;;;;;4949400;29;20030;-66
2022/07/15 00:42:43;;;;;;;3.63;1.38;;;17.60;71.80;;;;;;4936813;29;20053;-66
2022/07/15 00:45:02;;;;;;;3.35;1.70;;;17.60;71.80;;;;;;4948507;29;20031;-66
2022/07/15 00:47:28;;;;;;;2.88;1.35;;;17.60;71.60;;;;;;4934564;29;20048;-67
2022/07/15 00:49:53;;;;;;;4.75;1.85;;;17.60;71.80;;;;;;4934699;29;20027;-67
2022/07/15 00:52:21;;;;;;;5.97;1.95;;;17.60;71.90;;;;;;4933988;29;20036;-66
2022/07/15 00:54:50;;;;;;;2.53;1.42;;;17.50;72.10;;;;;;4934549;29;20090;-66
2022/07/15 00:57:17;;;;;;;2.25;1.20;;;17.50;72.40;;;;;;4933793;29;20035;-67
2022/07/15 00:59:45;;;;;;;4.05;1.50;;;17.40;72.40;;;;;;4930816;29;20091;-67
2022/07/15 01:02:12;;;;;;;3.28;1.27;;;17.40;72.70;;;;;;4937760;29;20529;-66
2022/07/15 01:04:39;;;;;;;3.55;1.58;;;17.30;72.80;;;;;;4937352;29;20088;-66
2022/07/15 01:07:04;;;;;;;3.42;1.52;;;17.30;72.80;;;;;;4938068;29;20039;-66
2022/07/15 01:09:30;;;;;;;4.57;1.15;;;17.30;72.80;;;;;;4937509;29;20071;-66
2022/07/15 01:11:56;;;;;;;6.13;1.83;;;17.30;73.00;;;;;;4937884;29;20487;-66
2022/07/15 01:14:22;;;;;;;3.03;1.80;;;17.30;73.20;;;;;;4941430;29;20019;-66
2022/07/15 01:16:47;;;;;;;5.63;1.92;;;17.20;73.60;;;;;;4939641;29;20027;-65
2022/07/15 01:19:13;;;;;;;3.30;1.13;;;17.20;73.80;;;;;;4937088;29;20394;-66
2022/07/15 01:21:38;;;;;;;3.03;1.38;;;17.20;74.00;;;;;;4938039;29;20024;-66
2022/07/15 01:24:04;;;;;;;4.30;1.40;;;17.20;74.10;;;;;;4937137;29;20086;-66
2022/07/15 01:26:30;;;;;;;4.22;1.73;;;17.20;74.30;;;;;;4944031;29;20036;-66
2022/07/15 01:28:55;;;;;;;5.03;1.40;;;17.10;74.50;;;;;;4937008;29;20020;-66
2022/07/15 01:31:27;;;;;;;7.53;1.75;;;17.10;75.00;;;;;;4937687;29;20071;-66
2022/07/15 01:33:54;;;;;;;3.10;1.30;;;17.10;75.20;;;;;;4937121;29;20051;-66
2022/07/15 01:36:20;;;;;;;4.80;1.80;;;17.10;75.30;;;;;;4937853;29;20036;-66
2022/07/15 01:38:45;;;;;;;3.83;1.40;;;17.10;75.40;;;;;;4951612;29;20402;-66
2022/07/15 01:41:11;;;;;;;2.42;1.50;;;17.10;75.50;;;;;;4943504;29;20036;-66
2022/07/15 01:43:36;;;;;;;3.70;1.67;;;17.10;75.70;;;;;;4939343;29;20027;-65
2022/07/15 01:46:02;;;;;;;3.35;1.50;;;17.10;76.00;;;;;;4941544;29;20027;-66
2022/07/15 01:51:11;;;;;;;4.82;2.22;;;17.00;76.20;;;;;;4948518;29;20019;-66
2022/07/15 01:53:37;;;;;;;6.30;2.13;;;16.90;75.90;;;;;;4955644;29;20505;-64
2022/07/15 01:56:03;;;;;;;3.72;1.60;;;17.00;76.10;;;;;;4944387;29;20028;-65
2022/07/15 01:58:29;;;;;;;4.13;1.83;;;16.90;76.20;;;;;;4936433;29;20067;-66
2022/07/15 02:00:55;;;;;;;3.78;1.67;;;16.90;76.40;;;;;;4936702;29;20150;-65
2022/07/15 02:03:21;;;;;;;3.75;1.52;;;16.80;76.40;;;;;;4950428;29;20110;-65
2022/07/15 02:05:46;;;;;;;5.63;2.25;;;16.80;76.40;;;;;;4937103;29;20602;-66
2022/07/15 02:08:12;;;;;;;4.53;1.50;;;16.80;76.70;;;;;;4955070;29;20027;-67
2022/07/15 02:10:40;;;;;;;8.43;1.70;;;16.80;76.60;;;;;;4947983;28;20063;-66
2022/07/15 02:13:10;;;;;;;7.45;2.22;;;16.70;76.50;;;;;;4936078;29;20032;-67
2022/07/15 02:15:37;;;;;;;6.45;1.85;;;16.70;77.00;;;;;;4943341;29;20034;-67
2022/07/15 02:18:03;;;;;;;4.57;1.55;;;16.70;76.90;;;;;;4952954;29;20394;-67
2022/07/15 02:20:29;;;;;;;7.82;1.60;;;16.60;77.00;;;;;;4936947;29;20055;-67
2022/07/15 02:22:58;;;;;;;5.07;1.70;;;16.60;77.00;;;;;;4935768;29;20510;-67
2022/07/15 02:25:30;;;;;;;5.38;1.95;;;16.60;76.90;;;;;;4940241;29;20055;-66
2022/07/15 02:27:57;;;;;;;4.95;1.60;;;16.60;77.10;;;;;;4955077;29;20019;-67
2022/07/15 02:30:28;;;;;;;3.50;1.65;;;16.50;77.10;;;;;;4953879;29;20035;-66
2022/07/15 02:32:54;;;;;;;7.03;1.85;;;16.50;77.20;;;;;;4936835;29;20032;-66
2022/07/15 02:35:19;;;;;;;6.93;2.08;;;16.50;77.20;;;;;;4936376;29;20095;-66
2022/07/15 02:37:45;;;;;;;4.70;2.00;;;16.50;77.40;;;;;;4943037;29;20434;-66
2022/07/15 02:40:12;;;;;;;3.85;1.73;;;16.50;77.50;;;;;;4950797;29;20047;-66
2022/07/15 02:42:37;;;;;;;4.43;2.13;;;16.50;77.50;;;;;;4935581;29;20466;-66
2022/07/15 02:45:04;;;;;;;10.30;1.98;;;16.50;77.70;;;;;;4936248;29;20093;-66
2022/07/15 02:47:29;;;;;;;4.03;1.52;;;16.50;77.70;;;;;;4935597;29;20102;-66
2022/07/15 02:49:55;;;;;;;6.13;2.03;;;16.40;77.80;;;;;;4935566;29;20149;-66
2022/07/15 02:52:21;;;;;;;7.38;2.03;;;16.30;78.10;;;;;;4935812;29;20059;-67
2022/07/15 02:54:46;;;;;;;6.68;2.22;;;16.30;78.20;;;;;;4936189;29;20031;-66
2022/07/15 02:57:12;;;;;;;7.35;1.90;;;16.30;78.20;;;;;;4935492;29;20046;-66
2022/07/15 02:59:37;;;;;;;7.28;1.70;;;16.30;78.70;;;;;;4934781;29;20147;-66
2022/07/15 03:02:03;;;;;;;5.28;2.25;;;16.20;78.90;;;;;;4953193;29;20394;-66
2022/07/15 03:04:29;;;;;;;4.13;1.77;;;16.20;78.90;;;;;;4954542;29;20024;-66
2022/07/15 03:06:55;;;;;;;4.18;1.80;;;16.20;79.00;;;;;;4936593;29;20075;-67
2022/07/15 03:09:20;;;;;;;4.55;2.10;;;16.20;79.30;;;;;;4935164;29;20038;-67
2022/07/15 03:11:46;;;;;;;6.57;2.22;;;16.20;79.30;;;;;;4951286;29;20027;-67
2022/07/15 03:14:11;;;;;;;5.45;1.70;;;16.20;79.40;;;;;;4953520;29;20410;-67
2022/07/15 03:16:37;;;;;;;5.90;1.88;;;16.20;79.80;;;;;;4938549;29;20031;-67
2022/07/15 03:19:02;;;;;;;4.18;1.42;;;16.20;79.70;;;;;;4934650;29;20031;-67
2022/07/15 03:21:28;;;;;;;6.40;2.17;;;16.20;79.80;;;;;;4935262;29;20027;-67
2022/07/15 03:23:54;;;;;;;5.60;1.88;;;16.20;79.80;;;;;;4951085;29;20126;-66
2022/07/15 03:26:20;;;;;;;6.10;2.10;;;16.20;79.90;;;;;;4932719;29;20043;-67
2022/07/15 03:28:46;;;;;;;6.22;1.98;;;16.20;80.00;;;;;;4934762;29;20031;-66
2022/07/15 03:31:12;;;;;;;6.95;1.90;;;16.20;80.10;;;;;;4935434;29;20031;-66
2022/07/15 03:33:37;;;;;;;5.75;1.80;;;16.20;80.20;;;;;;4934673;29;20119;-67
2022/07/15 03:36:05;;;;;;;4.40;1.85;;;16.20;80.40;;;;;;4928303;29;20504;-67
2022/07/15 03:38:30;;;;;;;5.25;1.70;;;16.20;80.50;;;;;;4952791;29;20490;-66
2022/07/15 03:40:56;;;;;;;7.43;2.30;;;16.20;80.50;;;;;;4943424;29;20043;-66
2022/07/15 03:43:22;;;;;;;5.03;2.10;;;16.20;80.80;;;;;;4934730;29;20106;-67
2022/07/15 03:45:48;;;;;;;5.40;1.88;;;16.10;80.90;;;;;;4935619;29;20079;-67
2022/07/15 03:48:13;;;;;;;3.92;1.70;;;16.20;80.90;;;;;;4934381;29;20028;-67
2022/07/15 03:50:39;;;;;;;6.18;1.83;;;16.10;81.00;;;;;;4935457;29;20039;-67
2022/07/15 03:53:04;;;;;;;4.80;1.70;;;16.10;81.10;;;;;;4934664;29;20499;-66
2022/07/15 03:55:30;;;;;;;5.53;2.55;;;16.10;81.40;;;;;;4935156;29;20114;-66
2022/07/15 03:57:56;;;;;;;3.72;1.70;;;16.10;81.70;;;;;;4934360;29;20027;-66
2022/07/15 04:00:22;;;;;;;10.98;2.78;;;16.10;82.10;;;;;;4934746;29;20055;-67
2022/07/15 04:02:47;;;;;;;3.38;1.45;;;16.10;81.80;;;;;;4933973;29;20379;-67
2022/07/15 04:05:13;;;;;;;5.10;1.65;;;16.10;81.80;;;;;;4935337;29;20479;-67
2022/07/15 04:07:39;;;;;;;6.15;2.13;;;16.10;81.80;;;;;;4934493;29;20101;-67
2022/07/15 04:10:05;;;;;;;7.68;2.45;;;16.20;81.90;;;;;;4936012;29;20118;-65
2022/07/15 04:12:30;;;;;;;4.72;1.70;;;16.20;81.90;;;;;;4943344;29;20023;-66
2022/07/15 04:14:56;;;;;;;7.32;1.70;;;16.30;81.90;;;;;;4934049;29;20023;-66
2022/07/15 04:17:21;;;;;;;5.80;1.77;;;16.40;82.00;;;;;;4934218;29;20020;-67
2022/07/15 04:19:47;;;;;;;4.68;1.65;;;16.50;81.80;;;;;;4935055;29;20028;-66
2022/07/15 04:22:12;;;;;;;5.63;2.50;;;16.50;81.70;;;;;;4952737;29;20113;-66
2022/07/15 04:24:38;;;;;;;8.63;2.53;;;16.60;81.60;;;;;;4947087;29;20574;-66
2022/07/15 04:27:04;;;;;;;5.80;1.85;;;16.60;81.60;;;;;;4934885;29;20502;-67
2022/07/15 04:29:29;;;;;;;5.05;1.88;;;16.60;81.80;;;;;;4934145;29;20080;-66
2022/07/15 04:31:55;;;;;;;8.27;1.98;;;16.60;81.80;;;;;;4934267;29;20047;-68
2022/07/15 04:34:20;;;;;;;5.95;2.00;;;16.60;81.80;;;;;;4937103;29;20056;-67
2022/07/15 04:36:46;;;;;;;6.63;2.60;;;16.70;81.90;;;;;;4938752;29;20072;-67
2022/07/15 04:39:11;;;;;;;6.00;2.03;;;16.70;81.80;;;;;;4942912;29;20035;-66
2022/07/15 04:41:37;;;;;;;3.75;1.63;;;16.70;81.70;;;;;;4938484;29;20431;-66
2022/07/15 04:44:03;;;;;;;4.20;1.63;;;16.60;81.80;;;;;;4937739;29;20487;-67
2022/07/15 04:46:28;;;;;;;6.88;2.20;;;16.60;82.00;;;;;;4938228;29;20191;-66
2022/07/15 04:51:38;;;;;;;4.50;1.75;;;16.60;82.10;;;;;;4938379;29;20051;-67
2022/07/15 04:54:04;;;;;;;4.88;2.17;;;16.60;82.00;;;;;;4937761;29;20027;-67
2022/07/15 04:56:31;;;;;;;7.85;2.30;;;16.70;82.00;;;;;;4938323;29;20055;-67
2022/07/15 04:58:56;;;;;;;3.95;1.85;;;16.70;82.30;;;;;;4927026;29;20026;-67
2022/07/15 05:01:22;;;;;;;4.35;2.08;;;16.80;82.10;;;;;;4942485;29;20063;-67
2022/07/15 05:03:47;;;;;;;9.32;2.00;;;16.90;81.90;;;;;;4937556;29;20024;-67
2022/07/15 05:06:13;;;;;;;6.15;2.15;;;16.90;81.80;;;;;;4938397;29;20032;-67
2022/07/15 05:08:38;;;;;;;5.88;2.00;;;17.00;81.80;;;;;;4945657;29;20074;-66
2022/07/15 05:11:04;;;;;;;10.07;2.17;;;17.20;81.60;;;;;;4945263;29;20038;-67
2022/07/15 05:13:30;;;;;;;5.35;2.40;;;17.30;81.40;;;;;;4937208;29;20471;-67
2022/07/15 05:15:55;;;;;;;6.22;2.25;;;17.40;81.00;;;;;;4937826;29;20031;-67
2022/07/15 05:18:21;;;;;;;7.50;1.88;;;17.40;80.80;;;;;;4937281;29;20024;-67
2022/07/15 05:20:47;;;;;;;5.80;1.83;;;17.50;80.60;;;;;;4937503;29;20058;-67
2022/07/15 05:23:12;;;;;;;6.18;2.40;;;17.60;80.30;;;;;;4937402;29;20016;-67
2022/07/15 05:25:38;;;;;;;5.63;1.85;;;17.60;80.20;;;;;;4944600;29;20027;-67
2022/07/15 05:28:03;;;;;;;4.68;1.70;;;17.50;80.00;;;;;;4937463;29;20035;-68
2022/07/15 05:30:29;;;;;;;2.97;1.42;;;17.50;79.90;;;;;;4937565;29;20039;-68
2022/07/15 05:32:54;;;;;;;8.02;2.00;;;17.50;80.00;;;;;;4937060;29;20039;-67
2022/07/15 05:35:22;;;;;;;5.25;2.05;;;17.50;79.90;;;;;;4937873;29;20419;-67
2022/07/15 05:37:47;;;;;;;6.43;2.05;;;17.40;79.90;;;;;;4939130;29;20386;-68
2022/07/15 05:40:15;;;;;;;4.60;1.88;;;17.50;80.10;;;;;;4951344;29;20044;-67
2022/07/15 05:42:40;;;;;;;6.55;2.22;;;17.50;80.00;;;;;;4919358;29;20031;-67
2022/07/15 05:45:06;;;;;;;4.63;1.70;;;17.50;80.00;;;;;;4939350;29;20275;-67
2022/07/15 05:47:32;;;;;;;7.07;2.10;;;17.50;80.10;;;;;;4938416;29;20019;-67
2022/07/15 05:49:58;;;;;;;5.70;1.70;;;17.40;80.10;;;;;;4953277;29;20031;-66
2022/07/15 05:52:24;;;;;;;6.60;2.20;;;17.50;80.10;;;;;;4936942;29;20028;-66
2022/07/15 05:54:49;;;;;;;7.47;1.95;;;17.50;80.10;;;;;;4937044;29;20028;-67
2022/07/15 05:57:15;;;;;;;5.97;2.08;;;17.60;80.00;;;;;;4936165;29;20023;-68
2022/07/15 05:59:41;;;;;;;4.72;1.95;;;17.60;79.80;;;;;;4936207;29;20047;-67
2022/07/15 06:02:06;;;;;;;6.82;1.90;;;17.70;79.70;;;;;;4940990;29;20201;-66
2022/07/15 06:04:32;;;;;;;5.07;1.98;;;17.60;79.50;;;;;;4936554;29;20020;-66
2022/07/15 06:06:57;;;;;;;4.65;1.70;;;17.80;79.20;;;;;;4936957;29;20031;-67
2022/07/15 06:09:23;;;;;;;7.43;1.90;;;17.70;79.00;;;;;;4950476;29;20504;-68
2022/07/15 06:11:48;;;;;;;4.05;1.58;;;17.80;78.40;;;;;;4933782;29;20036;-68
2022/07/15 06:14:15;;;;;;;6.03;2.03;;;17.80;78.60;;;;;;4936476;29;20122;-67
2022/07/15 06:16:40;;;;;;;6.47;1.58;;;17.90;78.70;;;;;;4937312;29;20033;-66
2022/07/15 06:19:08;;;;;;;5.05;1.70;;;18.10;78.30;;;;;;4949112;29;20056;-65
2022/07/15 06:21:35;;;;;;;6.22;2.72;;;18.20;77.70;;;;;;4951787;29;20027;-66
2022/07/15 06:24:00;;;;;;;7.78;2.22;;;18.40;77.20;;;;;;4947323;28;20055;-67
2022/07/15 06:26:26;;;;;;;6.97;1.70;;;18.30;76.20;;;;;;4952642;28;20081;-67
2022/07/15 06:28:51;;;;;;;7.60;2.10;;;18.30;76.40;;;;;;4955720;28;20023;-71
2022/07/15 06:31:17;;;;;;;2.83;1.55;;;18.40;76.50;;;;;;4931182;29;20027;-70
2022/07/15 06:33:43;;;;;;;6.45;1.60;;;18.60;76.00;;;;;;4945078;28;20023;-67
2022/07/15 06:36:08;;;;;;;3.13;1.25;;;18.70;75.70;;;;;;4936030;29;20104;-68
2022/07/15 06:38:34;;;;;;;4.75;1.90;;;18.80;75.40;;;;;;4934985;29;20031;-67
2022/07/15 06:40:59;;;;;;;6.15;1.67;;;18.90;74.80;;;;;;4943646;29;20479;-67
2022/07/15 06:43:25;;;;;;;4.70;1.80;;;18.90;74.10;;;;;;4940533;28;20031;-67
2022/07/15 06:45:50;;;;;;;4.25;1.45;;;19.00;73.80;;;;;;4951846;28;20046;-66
2022/07/15 06:48:16;;;;;;;6.25;1.60;;;19.00;73.80;;;;;;4953184;28;20046;-66
2022/07/15 06:50:42;;;;;;;4.25;1.60;;;19.10;74.10;;;;;;4945653;28;20379;-66
2022/07/15 06:53:08;;;;;;;4.43;1.70;;;19.20;73.80;;;;;;4935498;29;20878;-66
2022/07/15 06:55:33;;;;;;;4.70;1.88;;;19.40;73.30;;;;;;4939604;28;20062;-65
2022/07/15 06:57:59;;;;;;;7.05;1.92;;;19.40;73.10;;;;;;4936784;29;20367;-66
2022/07/15 07:00:24;;;;;;;4.55;1.50;;;19.50;73.20;;;;;;4946957;28;20078;-67
2022/07/15 07:02:50;;;;;;;5.82;2.25;;;19.50;73.50;;;;;;4935186;29;20110;-67
2022/07/15 07:05:16;;;;;;;3.53;1.70;;;19.70;73.20;;;;;;4942016;28;20047;-67
2022/07/15 07:07:42;;;;;;;6.68;1.73;;;19.70;72.80;;;;;;4936376;28;20038;-66
2022/07/15 07:10:09;;;;;;;6.40;1.52;;;19.90;72.20;;;;;;4948870;29;20796;-66
2022/07/15 07:12:35;;;;;;;7.55;1.77;;;20.00;71.70;;;;;;4949036;29;20121;-65
2022/07/15 07:15:02;;;;;;;3.20;1.40;;;20.10;71.40;;;;;;4951380;29;20138;-66
2022/07/15 07:17:28;;;;;;;2.30;1.40;;;20.10;71.20;;;;;;4942692;29;20035;-66
2022/07/15 07:19:55;;;;;;;5.10;1.83;;;20.20;71.50;;;;;;4952328;28;20055;-67
2022/07/15 07:22:21;;;;;;;3.92;1.35;;;20.40;71.50;;;;;;4947442;28;20038;-67
2022/07/15 07:24:47;;;;;;;6.32;2.00;;;20.50;71.00;;;;;;4935308;29;20028;-67
2022/07/15 07:27:12;;;;;;;5.22;1.60;;;20.60;70.90;;;;;;4952442;28;20068;-67
2022/07/15 07:29:38;;;;;;;5.43;1.80;;;20.60;70.90;;;;;;4951439;29;20035;-66
2022/07/15 07:32:03;;;;;;;7.82;1.67;;;20.60;70.90;;;;;;4932347;29;20046;-66
2022/07/15 07:34:29;;;;;;;5.20;1.45;;;20.70;70.70;;;;;;4934511;28;20033;-67
2022/07/15 07:36:55;;;;;;;3.95;1.25;;;20.70;70.00;;;;;;4942112;28;20035;-67
2022/07/15 07:39:21;;;;;;;8.70;2.15;;;20.80;69.70;;;;;;4940597;29;20451;-67
2022/07/15 07:41:47;;;;;;;4.82;1.55;;;20.90;69.40;;;;;;4934890;28;20031;-67
2022/07/15 07:44:13;;;;;;;5.00;1.80;;;21.00;69.10;;;;;;4953544;29;20549;-67
2022/07/15 07:46:38;;;;;;;6.28;1.80;;;21.00;68.70;;;;;;4936689;29;20035;-67
2022/07/15 07:49:04;;;;;;;5.53;1.90;;;21.00;68.20;;;;;;4953530;29;20019;-67
2022/07/15 07:51:29;;;;;;;6.90;1.77;;;21.00;68.00;;;;;;4951219;29;21494;-67
2022/07/15 07:53:56;;;;;;;3.17;1.42;;;21.00;67.80;;;;;;4951221;28;20030;-67
2022/07/15 07:56:22;;;;;;;5.65;1.92;;;21.00;68.30;;;;;;4937876;28;20032;-67
2022/07/15 07:58:47;;;;;;;7.00;1.73;;;21.00;67.80;;;;;;4934532;29;20027;-67
2022/07/15 08:01:13;;;;;;;3.63;1.30;;;21.00;67.30;;;;;;4946116;29;20074;-67
2022/07/15 08:03:38;;;;;;;6.05;1.73;;;21.00;67.30;;;;;;4952233;28;20065;-67
2022/07/15 08:06:04;;;;;;;3.67;1.65;;;21.00;67.00;;;;;;4940513;28;20094;-66
2022/07/15 08:08:29;;;;;;;4.40;1.77;;;20.90;66.90;;;;;;4927749;29;20027;-66
2022/07/15 08:10:56;;;;;;;3.72;1.77;;;20.80;66.50;;;;;;4943331;29;20036;-67
2022/07/15 08:13:24;;;;;;;3.72;1.73;;;20.80;67.00;;;;;;4942904;28;20019;-67
2022/07/15 08:15:50;;;;;;;4.18;1.70;;;20.80;67.10;;;;;;4950657;29;20114;-67
2022/07/15 08:18:16;;;;;;;5.70;1.67;;;20.80;66.70;;;;;;4952462;29;20031;-67
2022/07/15 08:20:42;;;;;;;3.15;1.48;;;20.80;66.50;;;;;;4944238;29;20070;-66
2022/07/15 08:23:07;;;;;;;7.72;2.00;;;20.70;66.30;;;;;;4941696;28;20084;-67
2022/07/15 08:25:36;;;;;;;2.85;1.02;;;20.80;66.20;;;;;;4957218;28;20098;-66
2022/07/15 08:28:03;;;;;;;2.78;1.10;;;20.80;65.60;;;;;;4952038;28;20038;-66
2022/07/15 08:30:30;;;;;;;4.28;1.30;;;20.80;65.30;;;;;;4943877;28;20062;-66
2022/07/15 08:32:57;;;;;;;4.63;1.55;;;20.70;64.90;;;;;;4941694;28;20031;-66
2022/07/15 08:35:23;;;;;;;4.45;1.60;;;20.60;64.60;;;;;;4947186;29;20111;-65
2022/07/15 08:37:49;;;;;;;3.28;1.45;;;20.70;64.70;;;;;;4941109;29;20031;-65
2022/07/15 08:40:16;;;;;;;3.60;1.10;;;20.70;63.90;;;;;;4946006;28;20050;-66
2022/07/15 08:42:43;;;;;;;3.30;1.50;;;20.70;63.80;;;;;;4950586;29;20102;-66
2022/07/15 08:45:10;;;;;;;4.55;1.27;;;20.80;64.10;;;;;;4949209;29;20360;-66
2022/07/15 08:47:39;;;;;;;7.05;1.27;;;20.80;63.50;;;;;;4938379;28;20043;-66
2022/07/15 08:50:05;;;;;;;7.25;1.70;;;20.90;63.60;;;;;;4939962;29;20375;-67
2022/07/15 08:52:34;;;;;;;5.97;1.70;;;20.90;63.70;;;;;;4937445;28;20024;-65
2022/07/15 08:55:00;;;;;;;5.30;1.55;;;21.00;63.50;;;;;;4950176;29;20442;-65
2022/07/15 08:57:25;;;;;;;3.30;1.20;;;21.00;62.70;;;;;;4935645;29;20506;-65
2022/07/15 08:59:54;;;;;;;2.42;1.23;;;21.00;61.60;;;;;;4950366;29;20054;-65
2022/07/15 09:02:20;;;;;;;4.13;1.55;;;20.90;61.50;;;;;;4948248;29;20035;-66
2022/07/15 09:05:24;;;;;;;4.35;1.73;;;20.90;62.00;;;;;;4951899;29;20123;-66
2022/07/15 09:07:57;;;;;;;3.60;1.60;;;20.80;62.40;;;;;;4946880;29;20042;-65
2022/07/15 09:10:45;;;;;;;4.17;1.47;;;20.90;62.70;;;;;;4936266;28;20479;-66
2022/07/15 09:13:30;;;;;;;2.42;1.40;;;21.00;62.70;;;;;;4922822;29;20109;-66
2022/07/15 09:15:58;;;;;;;4.18;2.20;;;21.10;62.20;;;;;;4935552;29;20491;-65
2022/07/15 09:18:27;;;;;;;8.88;1.70;;;21.20;62.10;;;;;;4934527;28;20155;-66
2022/07/15 09:20:53;;;;;;;6.70;1.58;;;21.20;62.10;;;;;;4944823;29;20035;-66
2022/07/15 09:23:29;;;;;;;4.93;1.40;;;21.20;62.10;;;;;;4936491;28;20032;-67
2022/07/15 09:26:00;;;;;;;9.68;1.95;;;21.20;61.50;;;;;;4944397;29;20666;-66
2022/07/15 09:28:40;;;;;;;4.38;1.70;;;21.20;61.80;;;;;;4944433;28;20035;-66
2022/07/15 09:33:58;;;;;;;3.13;1.42;;;21.20;61.70;;;;;;4938576;29;20391;-66
2022/07/15 09:36:26;;;;;;;8.48;1.65;;;21.30;62.20;;;;;;4940084;29;20039;-66
2022/07/15 09:39:03;;;;;;;4.03;1.50;;;21.40;62.20;;;;;;4951950;29;20055;-66
2022/07/15 09:41:33;;;;;;;4.28;1.30;;;21.50;61.80;;;;;;4940612;28;20097;-66
2022/07/15 09:44:09;;;;;;;6.30;1.33;;;21.60;61.60;;;;;;4951763;28;20031;-66
2022/07/15 09:46:53;;;;;;;4.80;1.27;;;21.80;61.60;;;;;;4940436;29;20039;-66
2022/07/15 09:49:25;;;;;;;2.83;1.02;;;22.00;61.40;;;;;;4952719;28;20031;-66
2022/07/15 09:52:03;;;;;;;5.18;1.58;;;22.10;60.90;;;;;;4937901;29;20063;-66
2022/07/15 09:54:36;;;;;;;4.25;1.10;;;22.10;60.90;;;;;;4946360;29;20133;-66
2022/07/15 09:57:04;;;;;;;4.80;1.50;;;22.20;60.20;;;;;;4942322;29;20041;-66
2022/07/15 09:59:31;;;;;;;3.92;2.00;;;22.30;59.40;;;;;;4948378;29;20043;-66
2022/07/15 10:01:58;;;;;;;5.47;1.38;;;22.20;59.80;;;;;;4940066;29;20089;-67
2022/07/15 10:04:25;;;;;;;3.83;1.15;;;22.30;59.30;;;;;;4953430;29;20037;-66
2022/07/15 10:06:53;;;;;;;5.57;1.10;;;22.20;59.10;;;;;;4941533;29;20027;-67
2022/07/15 10:09:26;;;;;;;2.00;1.10;;;22.20;59.20;;;;;;4953899;29;20027;-66
2022/07/15 10:11:59;;;;;;;1.92;1.17;;;22.10;58.70;;;;;;4940619;29;20106;-66
2022/07/15 10:14:43;;;;;;;4.13;1.85;;;22.00;59.40;;;;;;4937802;29;20071;-66
2022/07/15 10:17:35;;;;;;;2.40;1.17;;;22.00;59.60;;;;;;4953260;29;20055;-65
2022/07/15 10:20:33;;;;;;;5.10;1.65;;;22.00;58.50;;;;;;4941525;29;20035;-65
2022/07/15 10:23:12;;;;;;;4.47;1.73;;;22.00;59.10;;;;;;4953696;28;20027;-65
2022/07/15 10:25:58;;;;;;;2.92;1.35;;;22.10;58.90;;;;;;4945742;29;20055;-65
2022/07/15 10:28:58;;;;;;;2.83;1.58;;;22.20;58.60;;;;;;4951409;29;20043;-65
2022/07/15 10:31:26;;;;;;;5.30;1.77;;;22.30;58.40;;;;;;4928176;29;20487;-65
2022/07/15 10:34:06;;;;;;;3.55;1.17;;;22.30;58.50;;;;;;4948481;29;20031;-65
2022/07/15 10:36:47;;;;;;;2.72;1.10;;;22.30;58.10;;;;;;4950058;29;20030;-66
2022/07/15 10:39:17;;;;;;;5.50;1.85;;;22.10;58.20;;;;;;4950133;28;20028;-70
2022/07/15 10:42:02;;;;;;;6.88;1.55;;;22.00;58.90;;;;;;4953238;29;20039;-67
2022/07/15 10:44:29;;;;;;;4.53;1.85;;;22.10;58.50;;;;;;4936377;28;20043;-67
2022/07/15 10:47:13;;;;;;;2.88;1.17;;;22.20;58.00;;;;;;4952717;29;20045;-68
2022/07/15 10:49:44;;;;;;;4.32;1.60;;;22.20;57.30;;;;;;4935476;29;20067;-67
2022/07/15 10:52:14;;;;;;;3.25;1.17;;;22.20;57.50;;;;;;4938051;29;20122;-65
2022/07/15 10:54:43;;;;;;;2.63;1.30;;;22.00;57.40;;;;;;4942397;29;20035;-66
2022/07/15 10:57:09;;;;;;;2.97;1.38;;;21.90;57.40;;;;;;4951841;28;20027;-66
2022/07/15 10:59:46;;;;;;;5.57;1.95;;;21.90;57.40;;;;;;4947167;29;20058;-66
2022/07/15 11:02:15;;;;;;;5.78;1.58;;;22.00;57.40;;;;;;4951541;28;20047;-65
2022/07/15 11:04:42;;;;;;;4.53;1.67;;;22.00;57.50;;;;;;4950497;29;20038;-66
2022/07/15 11:07:09;;;;;;;5.80;1.20;;;22.10;57.30;;;;;;4953676;29;20032;-65
2022/07/15 11:09:46;;;;;;;3.13;1.40;;;22.10;56.90;;;;;;4940076;28;20231;-65
2022/07/15 11:12:18;;;;;;;3.75;1.40;;;22.10;57.00;;;;;;4954338;29;20043;-65
2022/07/15 11:14:54;;;;;;;3.17;1.33;;;22.20;57.00;;;;;;4935193;29;20510;-66
2022/07/15 11:17:28;;;;;;;4.20;1.42;;;22.30;56.80;;;;;;4953078;28;20031;-65
2022/07/15 11:19:55;;;;;;;5.40;1.50;;;22.30;56.50;;;;;;4924650;29;20459;-67
2022/07/15 11:22:24;;;;;;;2.95;1.20;;;22.20;56.80;;;;;;4921875;29;20066;-66
2022/07/15 11:24:50;;;;;;;3.63;1.30;;;22.30;56.70;;;;;;4946612;29;20383;-64
2022/07/15 11:27:16;;;;;;;4.68;1.40;;;22.30;56.50;;;;;;4947667;29;20031;-66
2022/07/15 11:30:03;;;;;;;4.28;1.52;;;22.40;56.40;;;;;;4940578;29;20450;-65
2022/07/15 11:32:36;;;;;;;5.35;2.33;;;22.40;56.40;;;;;;4952928;29;20187;-66
2022/07/15 11:35:02;;;;;;;5.32;1.85;;;22.50;56.70;;;;;;4949816;29;20034;-65
2022/07/15 11:37:35;;;;;;;3.58;1.52;;;22.60;56.60;;;;;;4932478;29;20035;-66
2022/07/15 11:45:42;;;;;;;5.93;1.60;;;22.70;55.50;;;;;;4950022;28;20478;-67
2022/07/15 11:48:09;;;;;;;3.05;1.50;;;22.70;56.00;;;;;;4950953;29;20039;-66
2022/07/15 11:50:51;;;;;;;3.70;1.60;;;22.60;55.60;;;;;;4955901;28;20035;-66
2022/07/15 11:53:17;;;;;;;3.95;1.17;;;22.60;56.00;;;;;;4935907;29;20111;-66
2022/07/15 11:55:57;;;;;;;4.22;1.30;;;22.60;55.70;;;;;;4950630;29;20110;-66
2022/07/15 11:58:30;;;;;;;2.00;1.10;;;22.60;55.50;;;;;;4948025;28;20027;-66
2022/07/15 12:00:58;;;;;;;5.70;1.38;;;22.60;55.10;;;;;;4948338;28;20039;-66
2022/07/15 12:03:23;;;;;;;5.35;1.45;;;22.50;55.40;;;;;;4952684;28;20031;-66
2022/07/15 12:06:12;;;;;;;3.88;1.42;;;22.50;55.70;;;;;;4947640;29;20027;-66
2022/07/15 12:09:08;;;;;;;7.25;2.22;;;22.50;55.70;;;;;;4951518;28;20034;-66
2022/07/15 12:11:36;;;;;;;4.72;1.52;;;22.50;56.00;;;;;;4929299;28;20060;-66
2022/07/15 12:14:07;;;;;;;5.70;2.10;;;22.40;55.60;;;;;;4946686;28;20035;-66
2022/07/15 12:16:42;;;;;;;4.20;1.20;;;22.40;55.60;;;;;;4951888;28;20028;-66
2022/07/15 12:19:23;;;;;;;6.00;1.50;;;22.50;55.10;;;;;;4951133;28;20067;-67
2022/07/15 12:21:52;;;;;;;6.18;2.38;;;22.60;55.20;;;;;;4952012;28;20035;-66
2022/07/15 12:24:20;;;;;;;2.70;1.20;;;22.60;55.10;;;;;;4933181;29;20082;-66
2022/07/15 12:26:54;;;;;;;4.10;1.35;;;22.70;54.90;;;;;;4951827;29;20481;-66
2022/07/15 12:29:23;;;;;;;;;;;22.80;55.50;;;;;;4950857;28;20082;-66
2022/07/15 12:31:55;;;;;;;3.92;1.50;;;22.80;55.20;;;;;;4951655;29;20056;-67
2022/07/15 12:34:22;;;;;;;3.60;1.40;;;22.80;55.30;;;;;;4947289;29;20127;-67
2022/07/15 12:36:58;;;;;;;4.05;1.40;;;22.80;55.10;;;;;;4947838;29;20023;-67
2022/07/15 12:39:25;;;;;;;3.50;1.25;;;22.90;55.10;;;;;;4932572;29;20110;-67
2022/07/15 12:42:02;;;;;;;3.40;1.52;;;22.90;55.30;;;;;;4949575;28;20499;-67
2022/07/15 12:44:30;;;;;;;4.82;1.40;;;23.00;54.90;;;;;;4937064;28;20027;-67
2022/07/15 12:46:57;;;;;;;5.10;1.63;;;22.90;55.20;;;;;;4946532;28;20035;-67
2022/07/15 12:49:51;;;;;;;3.83;1.77;;;22.90;54.10;;;;;;4950929;28;20027;-68
2022/07/15 12:52:19;;;;;;;2.65;1.30;;;22.80;54.10;;;;;;4949327;28;20058;-67
2022/07/15 12:54:45;;;;;;;3.28;1.35;;;22.70;53.90;;;;;;4952174;28;20038;-66
2022/07/15 12:57:33;;;;;;;4.50;2.05;;;22.60;54.10;;;;;;4951943;28;20025;-67
2022/07/15 13:00:10;;;;;;;4.22;1.50;;;22.60;54.70;;;;;;4955183;28;20050;-67
2022/07/15 13:03:15;;;;;;;3.00;1.40;;;22.50;54.90;;;;;;4954518;29;20110;-66
2022/07/15 13:05:46;;;;;;;4.10;1.30;;;22.50;55.50;;;;;;4953544;29;20427;-67
2022/07/15 13:08:16;;;;;;;5.45;1.48;;;22.60;55.70;;;;;;4953289;29;20043;-67